createdAt,value
2019-03-08T00:00:27.513Z,8.40
2019-03-08T00:02:55.513Z,11.37
2019-03-08T00:05:23.331Z,15.67
2019-03-08T00:07:51.147Z,11.50
2019-03-08T00:10:19.244Z,6.93
2019-03-08T00:12:47.245Z,8.83
2019-03-08T00:15:15.362Z,8.77
2019-03-08T00:17:43.165Z,17.97
2019-03-08T00:20:11.435Z,17.37
2019-03-08T00:22:39.350Z,13.10
2019-03-08T00:25:07.590Z,13.47
2019-03-08T00:27:35.399Z,13.37
2019-03-08T00:30:04.201Z,16.77
2019-03-08T00:32:32.217Z,10.53
2019-03-08T00:35:00.402Z,10.77
2019-03-08T00:37:28.222Z,19.57
2019-03-08T00:39:56.138Z,10.60
2019-03-08T00:42:24.190Z,10.63
2019-03-08T00:44:52.455Z,12.97
2019-03-08T00:47:20.493Z,5.80
2019-03-08T00:49:48.291Z,7.77
2019-03-08T00:52:16.427Z,14.97
2019-03-08T00:54:44.399Z,7.67
2019-03-08T00:57:12.360Z,6.90
2019-03-08T00:59:40.406Z,7.87
2019-03-08T01:02:08.615Z,9.77
2019-03-08T01:04:36.511Z,11.73
2019-03-08T01:07:04.396Z,7.00
2019-03-08T01:09:37.037Z,5.93
2019-03-08T01:12:04.963Z,8.03
2019-03-08T01:14:33.005Z,4.10
2019-03-08T01:17:00.880Z,9.67
2019-03-08T01:19:28.932Z,3.87
2019-03-08T01:21:56.737Z,6.30
2019-03-08T01:24:24.521Z,5.30
2019-03-08T01:26:52.445Z,7.90
2019-03-08T01:29:20.270Z,7.37
2019-03-08T01:31:48.084Z,9.07
2019-03-08T01:34:16.083Z,5.03
2019-03-08T01:36:44.140Z,6.87
2019-03-08T01:39:12.109Z,5.40
2019-03-08T01:41:39.916Z,7.33
2019-03-08T01:44:09.421Z,6.47
2019-03-08T01:46:37.354Z,6.40
2019-03-08T01:49:05.146Z,5.20
2019-03-08T01:51:33.356Z,4.90
2019-03-08T01:54:01.284Z,9.50
2019-03-08T01:56:29.075Z,9.70
2019-03-08T01:58:56.873Z,7.83
2019-03-08T02:01:25.096Z,6.47
2019-03-08T02:03:52.996Z,10.23
2019-03-08T02:06:20.788Z,8.60
2019-03-08T02:08:48.712Z,4.93
2019-03-08T02:11:16.684Z,7.37
2019-03-08T02:13:44.475Z,8.90
2019-03-08T02:16:12.272Z,7.50
2019-03-08T02:18:40.298Z,7.50
2019-03-08T02:21:09.305Z,5.27
2019-03-08T02:23:38.223Z,8.67
2019-03-08T02:26:06.168Z,8.30
2019-03-08T02:28:33.968Z,6.70
2019-03-08T02:31:03.758Z,8.93
2019-03-08T02:33:31.698Z,8.97
2019-03-08T02:35:59.488Z,9.57
2019-03-08T02:38:28.583Z,9.70
2019-03-08T02:40:56.568Z,15.07
2019-03-08T02:43:24.355Z,9.97
2019-03-08T02:45:52.131Z,12.30
2019-03-08T02:48:20.067Z,13.07
2019-03-08T02:50:48.051Z,12.27
2019-03-08T02:53:16.144Z,11.07
2019-03-08T02:55:44.147Z,15.70
2019-03-08T02:58:12.169Z,14.10
2019-03-08T03:00:46.710Z,11.07
2019-03-08T03:03:16.113Z,11.10
2019-03-08T03:05:44.008Z,13.93
2019-03-08T03:08:11.793Z,12.23
2019-03-08T03:10:39.711Z,16.67
2019-03-08T03:13:07.634Z,9.40
2019-03-08T03:15:35.874Z,12.33
2019-03-08T03:18:03.823Z,13.60
2019-03-08T03:20:31.620Z,16.27
2019-03-08T03:22:59.580Z,10.73
2019-03-08T03:25:27.378Z,16.17
2019-03-08T03:27:55.319Z,18.97
2019-03-08T03:30:23.181Z,18.57
2019-03-08T03:32:50.955Z,19.03
2019-03-08T03:35:18.938Z,19.33
2019-03-08T03:37:47.347Z,18.40
2019-03-08T03:40:15.273Z,18.97
2019-03-08T03:42:43.590Z,14.90
2019-03-08T03:45:13.709Z,16.73
2019-03-08T03:47:41.802Z,15.93
2019-03-08T03:50:10.469Z,18.97
2019-03-08T03:52:40.832Z,14.07
2019-03-08T03:55:10.818Z,13.27
2019-03-08T03:57:42.720Z,16.90
2019-03-08T04:00:12.870Z,22.37
2019-03-08T04:02:42.310Z,17.87
2019-03-08T04:05:10.588Z,17.67
2019-03-08T04:07:43.362Z,14.23
2019-03-08T04:10:15.362Z,18.03
2019-03-08T04:12:44.415Z,20.30
2019-03-08T04:15:13.368Z,19.30
2019-03-08T04:17:43.343Z,18.60
2019-03-08T04:20:13.482Z,14.63
2019-03-08T04:22:41.448Z,19.03
2019-03-08T04:25:10.854Z,15.80
2019-03-08T04:27:38.730Z,14.97
2019-03-08T04:30:08.612Z,17.10
2019-03-08T04:32:36.738Z,25.80
2019-03-08T04:35:05.095Z,14.23
2019-03-08T04:37:32.918Z,16.57
2019-03-08T04:40:00.832Z,15.57
2019-03-08T04:42:28.636Z,19.00
2019-03-08T04:44:56.531Z,19.27
2019-03-08T04:47:24.561Z,19.07
2019-03-08T04:49:52.355Z,16.30
2019-03-08T04:52:20.304Z,13.37
2019-03-08T04:54:48.108Z,18.63
2019-03-08T04:57:16.246Z,23.13
2019-03-08T04:59:44.043Z,18.30
2019-03-08T05:02:11.979Z,19.40
2019-03-08T05:04:40.087Z,20.10
2019-03-08T05:07:07.868Z,19.13
2019-03-08T05:09:35.782Z,24.73
2019-03-08T05:12:03.575Z,14.40
2019-03-08T05:14:31.368Z,22.73
2019-03-08T05:16:59.315Z,16.30
2019-03-08T05:19:27.489Z,14.97
2019-03-08T05:21:55.398Z,20.43
2019-03-08T05:24:23.256Z,22.33
2019-03-08T05:26:51.267Z,19.83
2019-03-08T05:29:19.073Z,16.70
2019-03-08T05:31:48.895Z,16.57
2019-03-08T05:34:16.862Z,20.37
2019-03-08T05:36:44.665Z,16.77
2019-03-08T05:39:12.714Z,23.07
2019-03-08T05:41:40.873Z,16.80
2019-03-08T05:44:08.860Z,15.23
2019-03-08T05:46:36.823Z,23.43
2019-03-08T05:49:04.712Z,19.57
2019-03-08T05:51:34.240Z,19.80
2019-03-08T05:54:02.506Z,16.30
2019-03-08T05:56:30.604Z,20.53
2019-03-08T05:58:58.654Z,19.13
2019-03-08T06:01:26.434Z,18.73
2019-03-08T06:03:55.411Z,24.80
2019-03-08T06:06:23.294Z,26.07
2019-03-08T06:08:51.271Z,15.53
2019-03-08T06:11:19.092Z,19.57
2019-03-08T06:13:47.001Z,14.40
2019-03-08T06:16:14.988Z,16.57
2019-03-08T06:18:43.154Z,18.30
2019-03-08T06:21:11.151Z,17.20
2019-03-08T06:23:39.823Z,19.17
2019-03-08T06:26:07.660Z,17.13
2019-03-08T06:28:35.602Z,13.80
2019-03-08T06:31:03.413Z,18.93
2019-03-08T06:33:31.315Z,18.33
2019-03-08T06:35:59.333Z,14.57
2019-03-08T06:38:27.129Z,15.03
2019-03-08T06:40:55.672Z,15.00
2019-03-08T06:43:23.512Z,17.33
2019-03-08T06:45:51.344Z,14.73
2019-03-08T06:48:19.346Z,15.40
2019-03-08T06:50:47.343Z,18.73
2019-03-08T06:53:15.683Z,15.50
2019-03-08T06:55:45.004Z,17.17
2019-03-08T06:58:15.663Z,13.60
2019-03-08T07:00:51.889Z,17.23
2019-03-08T07:03:19.897Z,13.90
2019-03-08T07:05:47.756Z,18.80
2019-03-08T07:08:15.570Z,13.93
2019-03-08T07:10:43.839Z,19.13
2019-03-08T07:13:11.881Z,14.33
2019-03-08T07:15:39.730Z,8.27
2019-03-08T07:18:12.619Z,10.20
2019-03-08T07:20:51.485Z,13.73
2019-03-08T07:23:41.872Z,17.50
2019-03-08T07:26:32.373Z,14.30
2019-03-08T07:29:28.676Z,10.80
2019-03-08T07:32:32.428Z,12.23
2019-03-08T07:35:25.432Z,8.97
2019-03-08T07:38:15.887Z,18.17
2019-03-08T07:41:05.981Z,12.40
2019-03-08T07:43:54.812Z,14.00
2019-03-08T07:46:29.020Z,15.40
2019-03-08T07:49:15.121Z,13.33
2019-03-08T07:52:01.488Z,19.63
2019-03-08T07:54:36.956Z,12.10
2019-03-08T07:57:33.926Z,14.37
2019-03-08T08:00:30.620Z,12.57
2019-03-08T08:03:16.587Z,16.17
2019-03-08T08:06:09.604Z,13.60
2019-03-08T08:09:00.120Z,14.77
2019-03-08T08:12:00.013Z,14.80
2019-03-08T08:14:48.386Z,11.97
2019-03-08T08:17:42.009Z,15.83
2019-03-08T08:20:30.040Z,14.13
2019-03-08T08:23:17.711Z,11.17
2019-03-08T08:26:14.137Z,13.13
2019-03-08T08:29:12.154Z,16.83
2019-03-08T08:32:02.253Z,10.50
2019-03-08T08:35:05.010Z,8.90
2019-03-08T08:37:55.584Z,20.13
2019-03-08T08:40:58.124Z,14.60
2019-03-08T08:43:38.836Z,8.53
2019-03-08T08:46:26.428Z,20.43
2019-03-08T08:49:12.854Z,10.33
2019-03-08T08:52:00.459Z,12.00
2019-03-08T08:54:50.515Z,9.30
2019-03-08T08:57:27.904Z,12.87
2019-03-08T09:00:14.670Z,9.90
2019-03-08T09:03:04.991Z,8.27
2019-03-08T09:05:59.461Z,7.70
2019-03-08T09:08:37.680Z,10.00
2019-03-08T09:11:30.919Z,11.17
2019-03-08T09:14:09.235Z,14.63
2019-03-08T09:16:55.159Z,8.93
2019-03-08T09:19:48.879Z,11.97
2019-03-08T09:22:31.597Z,14.10
2019-03-08T09:25:19.005Z,11.70
2019-03-08T09:28:00.077Z,10.30
2019-03-08T09:30:53.276Z,7.87
2019-03-08T09:33:25.900Z,10.33
2019-03-08T09:36:13.305Z,13.07
2019-03-08T09:38:59.730Z,13.70
2019-03-08T09:41:34.256Z,16.27
2019-03-08T09:44:25.067Z,13.27
2019-03-08T09:47:02.176Z,16.63
2019-03-08T09:49:47.505Z,11.60
2019-03-08T09:52:35.183Z,13.03
2019-03-08T09:55:10.375Z,10.13
2019-03-08T09:58:13.121Z,7.90
2019-03-08T10:00:59.442Z,12.63
2019-03-08T10:03:52.656Z,9.43
2019-03-08T10:06:43.261Z,18.83
2019-03-08T10:09:40.611Z,13.70
2019-03-08T10:12:34.438Z,7.33
2019-03-08T10:15:20.950Z,14.17
2019-03-08T10:17:58.849Z,10.83
2019-03-08T10:20:58.390Z,16.17
2019-03-08T10:23:40.033Z,10.50
2019-03-08T10:26:36.288Z,14.63
2019-03-08T10:29:10.768Z,16.23
2019-03-08T10:32:04.322Z,13.00
2019-03-08T10:34:46.961Z,12.00
2019-03-08T10:37:28.237Z,11.07
2019-03-08T10:40:06.101Z,12.73
2019-03-08T10:42:52.299Z,10.97
2019-03-08T10:45:42.646Z,9.70
2019-03-08T10:48:30.205Z,12.00
2019-03-08T10:51:06.879Z,9.77
2019-03-08T10:53:44.498Z,8.13
2019-03-08T10:56:43.649Z,8.87
2019-03-08T10:59:24.342Z,7.70
2019-03-08T11:02:12.036Z,13.00
2019-03-08T11:04:57.735Z,6.93
2019-03-08T11:07:38.274Z,9.40
2019-03-08T11:10:31.659Z,6.43
2019-03-08T11:13:18.159Z,7.07
2019-03-08T11:16:04.291Z,10.57
2019-03-08T11:18:45.324Z,6.20
2019-03-08T11:21:38.126Z,7.83
2019-03-08T11:24:35.473Z,7.53
2019-03-08T11:27:38.138Z,7.00
2019-03-08T11:30:21.786Z,7.50
2019-03-08T11:33:07.447Z,9.63
2019-03-08T11:35:56.749Z,6.60
2019-03-08T11:38:50.251Z,8.70
2019-03-08T11:41:25.838Z,5.40
2019-03-08T11:44:12.000Z,9.07
2019-03-08T11:46:57.091Z,11.57
2019-03-08T11:49:43.149Z,8.43
2019-03-08T11:52:29.371Z,9.50
2019-03-08T11:55:17.869Z,6.60
2019-03-08T11:58:11.389Z,8.03
2019-03-08T12:00:53.295Z,10.90
2019-03-08T12:03:34.808Z,6.20
2019-03-08T12:06:26.864Z,9.10
2019-03-08T12:09:07.690Z,9.20
2019-03-08T12:12:02.444Z,6.50
2019-03-08T12:14:48.547Z,5.10
2019-03-08T12:17:35.362Z,7.30
2019-03-08T12:20:30.549Z,8.80
2019-03-08T12:23:17.084Z,5.40
2019-03-08T12:26:10.512Z,5.13
2019-03-08T12:28:49.790Z,4.13
2019-03-08T12:31:36.138Z,9.37
2019-03-08T12:34:27.071Z,6.00
2019-03-08T12:37:15.213Z,4.73
2019-03-08T12:39:52.155Z,4.00
2019-03-08T12:42:38.435Z,6.53
2019-03-08T12:45:35.885Z,3.70
2019-03-08T12:48:25.872Z,7.40
2019-03-08T12:51:02.331Z,6.13
2019-03-08T12:53:55.478Z,6.50
2019-03-08T12:56:48.810Z,6.57
2019-03-08T12:59:30.148Z,3.67
2019-03-08T13:02:20.153Z,11.13
2019-03-08T13:05:20.085Z,5.40
2019-03-08T13:08:03.957Z,6.83
2019-03-08T13:10:33.021Z,4.93
2019-03-08T13:13:00.806Z,4.57
2019-03-08T13:15:28.768Z,9.97
2019-03-08T13:17:56.747Z,8.13
2019-03-08T13:20:24.709Z,6.70
2019-03-08T13:22:52.506Z,5.80
2019-03-08T13:25:20.759Z,7.90
2019-03-08T13:27:48.584Z,4.77
2019-03-08T13:30:19.318Z,7.10
2019-03-08T13:32:47.930Z,9.00
2019-03-08T13:35:15.896Z,4.00
2019-03-08T13:37:43.699Z,6.00
2019-03-08T13:40:13.016Z,3.50
2019-03-08T13:42:40.824Z,6.20
2019-03-08T13:45:12.047Z,3.90
2019-03-08T13:47:40.200Z,9.17
2019-03-08T13:50:09.817Z,5.70
2019-03-08T13:52:37.650Z,4.67
2019-03-08T13:55:09.685Z,7.03
2019-03-08T13:57:37.286Z,6.80
2019-03-08T14:00:07.918Z,3.60
2019-03-08T14:02:35.928Z,6.37
2019-03-08T14:05:04.408Z,12.37
2019-03-08T14:07:32.582Z,4.40
2019-03-08T14:10:00.508Z,6.40
2019-03-08T14:12:29.913Z,4.53
2019-03-08T14:14:57.834Z,7.90
2019-03-08T14:17:26.062Z,4.57
2019-03-08T14:19:53.864Z,4.80
2019-03-08T14:22:21.858Z,2.97
2019-03-08T14:24:49.697Z,7.50
2019-03-08T14:27:17.538Z,7.33
2019-03-08T14:29:45.572Z,6.83
2019-03-08T14:32:21.142Z,4.70
2019-03-08T14:34:49.658Z,5.53
2019-03-08T14:37:19.850Z,11.30
2019-03-08T14:39:48.663Z,4.53
2019-03-08T14:42:40.408Z,4.87
2019-03-08T14:45:30.069Z,6.80
2019-03-08T14:47:59.639Z,5.13
2019-03-08T14:50:27.608Z,7.10
2019-03-08T14:52:56.748Z,3.83
2019-03-08T14:55:24.977Z,5.93
2019-03-08T14:57:55.287Z,7.50
2019-03-08T15:00:25.189Z,6.03
2019-03-08T15:02:53.242Z,3.17
2019-03-08T15:05:21.059Z,6.87
2019-03-08T15:07:49.195Z,4.40
2019-03-08T15:10:18.721Z,11.10
2019-03-08T15:12:48.991Z,5.23
2019-03-08T15:15:16.880Z,8.50
2019-03-08T15:17:44.681Z,7.03
2019-03-08T15:20:15.601Z,5.93
2019-03-08T15:22:43.541Z,7.17
2019-03-08T15:25:12.671Z,4.30
2019-03-08T15:27:41.422Z,9.43
2019-03-08T15:30:12.559Z,6.20
2019-03-08T15:32:40.360Z,5.87
2019-03-08T15:35:09.588Z,6.83
2019-03-08T15:37:44.248Z,8.60
2019-03-08T15:40:11.286Z,4.37
2019-03-08T15:42:39.223Z,5.40
2019-03-08T15:45:08.431Z,9.43
2019-03-08T15:47:37.389Z,9.27
2019-03-08T15:50:09.641Z,8.30
2019-03-08T15:52:37.958Z,8.13
2019-03-08T15:55:06.126Z,9.73
2019-03-08T15:57:33.931Z,5.43
2019-03-08T16:00:01.874Z,6.80
2019-03-08T16:02:30.072Z,5.97
2019-03-08T16:04:58.009Z,7.30
2019-03-08T16:07:27.231Z,7.90
2019-03-08T16:09:55.344Z,6.80
2019-03-08T16:12:23.140Z,7.83
2019-03-08T16:14:51.229Z,7.37
2019-03-08T16:17:20.979Z,5.83
2019-03-08T16:19:48.838Z,7.77
2019-03-08T16:22:16.798Z,6.60
2019-03-08T16:24:44.602Z,6.20
2019-03-08T16:27:12.638Z,7.40
2019-03-08T16:29:40.740Z,3.40
2019-03-08T16:32:24.780Z,4.83
2019-03-08T16:34:52.568Z,9.20
2019-03-08T16:37:40.142Z,7.70
2019-03-08T16:40:26.236Z,6.87
2019-03-08T16:43:25.895Z,8.60
2019-03-08T16:46:16.486Z,8.97
2019-03-08T16:48:59.220Z,8.83
2019-03-08T16:51:44.296Z,8.07
2019-03-08T16:54:30.013Z,11.07
2019-03-08T16:57:08.997Z,9.80
2019-03-08T16:59:56.403Z,9.00
2019-03-08T17:02:46.673Z,14.80
2019-03-08T17:05:27.699Z,8.77
2019-03-08T17:08:16.618Z,11.67
2019-03-08T17:10:56.998Z,8.13
2019-03-08T17:13:31.102Z,10.77
2019-03-08T17:16:33.560Z,15.43
2019-03-08T17:19:20.737Z,9.27
2019-03-08T17:22:07.959Z,9.90
2019-03-08T17:25:01.240Z,6.47
2019-03-08T17:27:34.953Z,10.00
2019-03-08T17:30:26.637Z,7.37
2019-03-08T17:33:29.649Z,9.00
2019-03-08T17:36:32.101Z,8.60
2019-03-08T17:39:09.164Z,7.47
2019-03-08T17:41:53.435Z,8.17
2019-03-08T17:44:49.919Z,9.40
2019-03-08T17:47:22.412Z,6.93
2019-03-08T17:50:09.846Z,9.93
2019-03-08T17:52:51.707Z,11.03
2019-03-08T17:55:39.096Z,7.70
2019-03-08T17:58:35.654Z,10.20
2019-03-08T18:01:28.680Z,7.27
2019-03-08T18:04:19.282Z,5.17
2019-03-08T18:07:05.060Z,12.27
2019-03-08T18:09:51.472Z,11.50
2019-03-08T18:12:51.101Z,8.90
2019-03-08T18:15:44.445Z,7.17
2019-03-08T18:18:30.478Z,9.73
2019-03-08T18:21:07.795Z,15.90
2019-03-08T18:24:01.479Z,12.77
2019-03-08T18:26:49.050Z,12.70
2019-03-08T18:29:35.209Z,8.30
2019-03-08T18:32:25.275Z,5.80
2019-03-08T18:35:18.607Z,11.47
2019-03-08T18:37:54.230Z,8.60
2019-03-08T18:40:42.051Z,14.47
2019-03-08T18:43:32.107Z,8.27
2019-03-08T18:46:13.313Z,9.43
2019-03-08T18:49:03.722Z,12.00
2019-03-08T18:51:49.876Z,11.70
2019-03-08T18:54:27.917Z,9.60
2019-03-08T18:57:33.605Z,10.53
2019-03-08T19:00:20.999Z,14.93
2019-03-08T19:03:08.234Z,10.57
2019-03-08T19:05:42.385Z,10.50
2019-03-08T19:08:36.108Z,9.10
2019-03-08T19:11:10.760Z,11.57
2019-03-08T19:13:46.290Z,8.67
2019-03-08T19:16:35.052Z,12.37
2019-03-08T19:19:22.664Z,16.00
2019-03-08T19:21:59.138Z,15.53
2019-03-08T19:24:46.736Z,8.60
2019-03-08T19:27:43.031Z,7.03
2019-03-08T19:30:48.997Z,9.20
2019-03-08T19:33:26.928Z,8.97
2019-03-08T19:36:01.422Z,6.73
2019-03-08T19:38:47.483Z,7.80
2019-03-08T19:41:27.866Z,9.43
2019-03-08T19:44:17.953Z,8.83
2019-03-08T19:46:54.812Z,10.27
2019-03-08T19:49:54.120Z,11.90
2019-03-08T19:52:33.136Z,7.93
2019-03-08T19:55:14.319Z,9.73
2019-03-08T19:58:00.214Z,7.73
2019-03-08T20:00:57.933Z,6.30
2019-03-08T20:03:32.079Z,8.53
2019-03-08T20:06:28.351Z,8.47
2019-03-08T20:09:14.337Z,9.60
2019-03-08T20:12:07.936Z,5.33
2019-03-08T20:14:47.035Z,5.97
2019-03-08T20:17:37.658Z,5.43
2019-03-08T20:20:32.510Z,7.47
2019-03-08T20:23:13.642Z,7.13
2019-03-08T20:26:01.016Z,4.27
2019-03-08T20:28:54.773Z,4.20
2019-03-08T20:31:46.946Z,5.70
2019-03-08T20:34:23.590Z,2.77
2019-03-08T20:37:14.654Z,5.33
2019-03-08T20:40:09.496Z,2.53
2019-03-08T20:42:48.701Z,4.07
2019-03-08T20:45:39.834Z,3.03
2019-03-08T20:48:07.681Z,4.50
2019-03-08T20:50:35.729Z,4.33
2019-03-08T20:53:04.080Z,9.40
2019-03-08T20:55:32.201Z,5.00
2019-03-08T20:58:00.457Z,2.40
2019-03-08T21:00:28.287Z,5.50
2019-03-08T21:02:59.758Z,5.23
2019-03-08T21:05:28.678Z,2.50
2019-03-08T21:07:56.684Z,2.20
2019-03-08T21:10:24.555Z,3.30
2019-03-08T21:12:52.413Z,3.57
2019-03-08T21:15:25.266Z,8.50
2019-03-08T21:17:50.303Z,3.03
2019-03-08T21:20:18.120Z,4.07
2019-03-08T21:22:46.059Z,5.97
2019-03-08T21:25:14.428Z,3.80
2019-03-08T21:27:42.247Z,4.30
2019-03-08T21:30:14.097Z,7.07
2019-03-08T21:32:42.217Z,6.63
2019-03-08T21:35:10.250Z,4.40
2019-03-08T21:37:38.344Z,5.83
2019-03-08T21:40:06.822Z,7.97
2019-03-08T21:42:36.821Z,6.17
2019-03-08T21:45:06.292Z,5.83
2019-03-08T21:47:34.126Z,9.37
2019-03-08T21:50:02.146Z,10.93
2019-03-08T21:52:30.230Z,7.50
2019-03-08T21:54:58.033Z,9.23
2019-03-08T21:57:26.052Z,10.80
2019-03-08T21:59:55.774Z,9.80
2019-03-08T22:02:23.578Z,12.60
2019-03-08T22:04:57.114Z,13.20
2019-03-08T22:07:24.926Z,11.87
2019-03-08T22:10:04.463Z,10.47
2019-03-08T22:12:32.358Z,10.40
2019-03-08T22:15:00.311Z,7.80
2019-03-08T22:17:28.565Z,7.83
2019-03-08T22:19:56.358Z,10.13
2019-03-08T22:22:24.170Z,14.00
2019-03-08T22:24:52.281Z,12.90
2019-03-08T22:27:20.119Z,11.30
2019-03-08T22:29:48.108Z,7.93
2019-03-08T22:32:17.115Z,6.97
2019-03-08T22:34:45.087Z,7.40
2019-03-08T22:37:19.343Z,6.90
2019-03-08T22:39:47.380Z,10.47
2019-03-08T22:42:15.561Z,11.03
2019-03-08T22:44:48.277Z,18.60
2019-03-08T22:47:16.489Z,15.73
2019-03-08T22:49:44.480Z,9.20
2019-03-08T22:52:15.742Z,10.33
2019-03-08T22:54:43.820Z,15.60
2019-03-08T22:57:15.418Z,12.97
2019-03-08T22:59:43.591Z,10.20
2019-03-08T23:02:13.004Z,13.10
2019-03-08T23:04:40.913Z,7.27
2019-03-08T23:07:14.575Z,11.30
2019-03-08T23:09:46.985Z,10.03
2019-03-08T23:12:15.198Z,8.90
2019-03-08T23:14:44.286Z,9.00
2019-03-08T23:17:12.384Z,12.50
2019-03-08T23:19:43.158Z,10.47
2019-03-08T23:22:11.352Z,5.63
2019-03-08T23:24:39.324Z,12.73
2019-03-08T23:27:23.883Z,7.33
2019-03-08T23:29:57.337Z,10.07
2019-03-08T23:32:40.438Z,8.50
2019-03-08T23:35:12.146Z,7.83
2019-03-08T23:37:43.134Z,7.50
2019-03-08T23:40:19.259Z,15.03
2019-03-08T23:42:47.395Z,8.23
2019-03-08T23:45:15.593Z,13.93
2019-03-08T23:47:43.460Z,7.93
2019-03-08T23:50:21.236Z,5.60
2019-03-08T23:52:52.061Z,7.77
2019-03-08T23:55:19.945Z,4.57
2019-03-08T23:57:50.841Z,6.77
